Time;durP1;ratioP1;P1;durP2;ratioP2;P2;SDS_P1;SDS_P2;PMS_P1;PMS_P2;Temp;Humidity;BMP_temperature;BMP_pressure;BME280_temperature;BME280_humidity;BME280_pressure;Samples;Min_cycle;Max_cycle;Signal;HPM_P1;HPM_P2
2022/11/23 00:00:34;;;;;;;1.42;1.42;;;4.90;99.90;;;;;;5011638;28;20029;-75
2022/11/23 00:02:59;;;;;;;1.92;1.88;;;4.90;99.90;;;;;;5011906;28;20440;-75
2022/11/23 00:05:26;;;;;;;1.70;1.70;;;4.90;99.90;;;;;;5011585;28;20030;-76
2022/11/23 00:07:52;;;;;;;1.70;1.70;;;4.80;99.90;;;;;;5011483;28;20038;-76
2022/11/23 00:10:18;;;;;;;1.52;1.52;;;4.80;99.90;;;;;;5010385;28;20530;-76
2022/11/23 00:12:44;;;;;;;1.80;1.80;;;4.80;99.90;;;;;;5011635;28;20038;-75
2022/11/23 00:15:12;;;;;;;1.52;1.52;;;4.70;99.90;;;;;;5011330;28;20033;-76
2022/11/23 00:17:37;;;;;;;2.20;2.03;;;4.70;99.90;;;;;;5011452;28;20025;-75
2022/11/23 00:20:04;;;;;;;1.70;1.70;;;4.70;99.90;;;;;;5010263;28;20097;-76
2022/11/23 00:22:30;;;;;;;1.85;1.85;;;4.70;99.90;;;;;;5010271;28;20439;-76
2022/11/23 00:24:55;;;;;;;1.50;1.50;;;4.60;99.90;;;;;;5016607;28;20013;-76
2022/11/23 00:27:21;;;;;;;1.88;1.88;;;4.60;99.90;;;;;;5031014;28;20029;-77
2022/11/23 00:29:46;;;;;;;1.67;1.67;;;4.50;99.90;;;;;;5031026;28;20029;-77
2022/11/23 00:32:12;;;;;;;1.67;1.67;;;4.60;99.90;;;;;;5018495;28;20026;-76
2022/11/23 00:34:38;;;;;;;1.70;1.70;;;4.50;99.90;;;;;;5029464;28;20057;-77
2022/11/23 00:37:03;;;;;;;1.95;1.95;;;4.50;99.90;;;;;;5001944;28;20061;-77
2022/11/23 00:39:29;;;;;;;1.50;1.50;;;4.40;99.90;;;;;;5023545;28;20391;-75
2022/11/23 00:41:54;;;;;;;1.80;1.80;;;4.50;99.90;;;;;;5010134;28;20386;-75
2022/11/23 00:44:20;;;;;;;1.95;1.95;;;4.40;99.90;;;;;;5012595;28;20028;-74
2022/11/23 00:46:45;;;;;;;1.48;1.48;;;4.50;99.90;;;;;;5011395;28;20129;-75
2022/11/23 00:49:11;;;;;;;1.60;1.60;;;4.50;99.90;;;;;;5011855;28;20052;-75
2022/11/23 00:51:36;;;;;;;4.47;4.28;;;4.50;99.90;;;;;;5011859;28;20022;-75
2022/11/23 00:54:04;;;;;;;1.80;1.80;;;4.40;99.90;;;;;;5015180;28;20046;-75
2022/11/23 00:56:30;;;;;;;1.50;1.50;;;4.40;99.90;;;;;;5013803;28;20076;-75
2022/11/23 00:58:57;;;;;;;1.60;1.60;;;4.40;99.90;;;;;;5013427;28;20120;-75
2022/11/23 01:01:25;;;;;;;1.55;1.55;;;4.40;99.90;;;;;;5013664;28;20022;-75
2022/11/23 01:03:54;;;;;;;1.83;1.83;;;4.40;99.90;;;;;;5015047;28;20037;-75
2022/11/23 01:06:22;;;;;;;1.50;1.50;;;4.30;99.90;;;;;;5015064;28;20030;-76
2022/11/23 01:08:50;;;;;;;1.60;1.60;;;4.30;99.90;;;;;;5013118;28;20404;-76
2022/11/23 01:11:16;;;;;;;2.00;2.00;;;4.30;99.90;;;;;;5014474;28;20113;-76
2022/11/23 01:13:42;;;;;;;1.70;1.70;;;4.20;99.90;;;;;;5014297;28;20119;-76
2022/11/23 01:16:20;;;;;;;1.77;1.77;;;4.30;99.90;;;;;;5013193;28;20030;-75
2022/11/23 01:18:46;;;;;;;1.70;1.70;;;4.20;99.90;;;;;;5021582;28;20017;-76
2022/11/23 01:21:12;;;;;;;1.70;1.70;;;4.20;99.90;;;;;;5034873;28;20032;-75
2022/11/23 01:23:38;;;;;;;2.15;2.15;;;4.30;99.90;;;;;;5018469;28;20049;-75
2022/11/23 01:26:08;;;;;;;1.70;1.70;;;4.20;99.90;;;;;;5032015;28;20029;-75
2022/11/23 01:28:35;;;;;;;1.95;1.95;;;4.60;99.90;;;;;;5018282;28;20045;-74
2022/11/23 01:31:12;;;;;;;1.80;1.80;;;4.10;99.90;;;;;;5036128;28;20037;-74
2022/11/23 01:33:39;;;;;;;2.65;2.55;;;4.40;99.90;;;;;;5036512;28;20151;-74
2022/11/23 01:36:09;;;;;;;1.50;1.50;;;4.10;99.90;;;;;;5033245;28;20055;-76
2022/11/23 01:38:35;;;;;;;1.60;1.60;;;4.10;99.90;;;;;;5023769;28;20022;-75
2022/11/23 01:41:00;;;;;;;1.55;1.55;;;4.10;99.90;;;;;;5033715;28;20036;-75
2022/11/23 01:43:26;;;;;;;1.90;1.90;;;4.10;99.90;;;;;;5022730;28;20029;-75
2022/11/23 01:45:51;;;;;;;2.10;2.10;;;4.10;99.90;;;;;;5012508;28;20026;-75
2022/11/23 01:48:23;;;;;;;1.90;1.90;;;4.20;99.90;;;;;;5012658;28;20112;-75
2022/11/23 01:50:51;;;;;;;1.90;1.90;;;4.20;99.90;;;;;;5013839;28;20026;-75
2022/11/23 01:53:18;;;;;;;1.70;1.70;;;4.20;99.90;;;;;;5013604;28;20117;-74
2022/11/23 01:55:46;;;;;;;1.70;1.70;;;4.20;99.90;;;;;;5013565;28;20048;-74
2022/11/23 01:58:14;;;;;;;1.88;1.88;;;4.20;99.90;;;;;;5013840;28;20030;-75
2022/11/23 02:00:40;;;;;;;1.75;1.75;;;4.20;99.90;;;;;;5012851;28;20049;-76
2022/11/23 02:03:07;;;;;;;1.90;1.90;;;4.20;99.90;;;;;;5012118;28;20057;-76
2022/11/23 02:05:49;;;;;;;2.08;1.98;;;4.20;99.90;;;;;;5012039;28;20462;-76
2022/11/23 02:08:18;;;;;;;1.88;1.88;;;4.10;99.90;;;;;;5012024;28;20029;-76
2022/11/23 02:10:46;;;;;;;1.80;1.80;;;4.20;99.90;;;;;;5014840;28;20136;-75
2022/11/23 02:13:12;;;;;;;2.50;2.40;;;4.10;99.90;;;;;;5015638;28;20053;-75
2022/11/23 02:15:39;;;;;;;1.98;1.98;;;4.10;99.90;;;;;;5013737;28;20030;-75
2022/11/23 02:18:12;;;;;;;2.00;2.00;;;4.00;99.90;;;;;;5013397;28;20026;-75
2022/11/23 02:20:38;;;;;;;2.33;2.22;;;4.10;99.90;;;;;;5014179;28;20037;-74
2022/11/23 02:23:03;;;;;;;1.90;1.90;;;4.00;99.90;;;;;;5015544;28;20022;-75
2022/11/23 02:25:44;;;;;;;2.05;2.05;;;4.00;99.90;;;;;;5025944;28;20087;-75
2022/11/23 02:28:35;;;;;;;2.35;2.25;;;4.00;99.90;;;;;;5035538;28;20060;-74
2022/11/23 02:31:01;;;;;;;1.95;1.95;;;4.00;99.90;;;;;;5033609;28;20106;-74
2022/11/23 02:33:28;;;;;;;2.10;2.10;;;4.00;99.90;;;;;;5018328;28;20029;-74
2022/11/23 02:35:57;;;;;;;2.10;2.10;;;3.90;99.90;;;;;;5035310;28;20111;-74
2022/11/23 02:38:25;;;;;;;2.10;2.10;;;4.00;99.90;;;;;;5019329;28;20039;-75
2022/11/23 02:40:51;;;;;;;2.03;2.03;;;4.00;99.90;;;;;;5034827;28;20028;-75
2022/11/23 02:43:17;;;;;;;1.75;1.75;;;4.10;99.90;;;;;;5032561;28;20018;-76
2022/11/23 02:45:50;;;;;;;1.98;1.98;;;4.20;99.90;;;;;;5032460;28;20489;-75
2022/11/23 02:48:17;;;;;;;2.03;1.92;;;4.30;99.90;;;;;;5032378;28;20017;-76
2022/11/23 02:50:43;;;;;;;1.98;1.98;;;4.40;99.90;;;;;;5032394;28;20021;-75
2022/11/23 02:53:08;;;;;;;2.35;2.25;;;4.40;99.90;;;;;;5032361;28;20113;-76
2022/11/23 02:55:34;;;;;;;2.00;2.00;;;4.40;99.90;;;;;;5031986;28;20041;-76
2022/11/23 02:58:00;;;;;;;2.08;2.08;;;4.40;99.90;;;;;;5031066;28;20032;-75
2022/11/23 03:00:26;;;;;;;1.88;1.88;;;4.40;99.90;;;;;;5032200;28;20021;-76
2022/11/23 03:02:51;;;;;;;2.00;2.00;;;4.50;99.90;;;;;;5031127;28;20079;-74
2022/11/23 03:05:17;;;;;;;2.13;2.13;;;4.50;99.90;;;;;;5018918;28;20029;-76
2022/11/23 03:07:42;;;;;;;2.55;2.45;;;4.50;99.90;;;;;;5032325;28;20025;-75
2022/11/23 03:10:08;;;;;;;2.40;2.30;;;4.50;99.90;;;;;;5032158;28;20033;-75
2022/11/23 03:12:34;;;;;;;2.15;2.13;;;4.50;99.90;;;;;;5033645;28;20029;-72
2022/11/23 03:14:59;;;;;;;3.70;3.50;;;4.50;99.90;;;;;;5032216;28;20049;-73
2022/11/23 03:17:26;;;;;;;2.50;2.40;;;4.50;99.90;;;;;;5016495;28;20018;-73
2022/11/23 03:19:52;;;;;;;2.83;2.72;;;4.50;99.90;;;;;;5015647;28;20049;-74
2022/11/23 03:22:18;;;;;;;2.72;2.63;;;4.50;99.90;;;;;;5019643;28;20092;-74
2022/11/23 03:24:44;;;;;;;2.30;2.20;;;4.50;99.90;;;;;;5032505;28;20167;-74
2022/11/23 03:27:10;;;;;;;2.50;2.40;;;4.50;99.90;;;;;;5029066;28;20025;-74
2022/11/23 03:29:35;;;;;;;2.38;2.28;;;4.50;99.90;;;;;;5030592;28;20120;-74
2022/11/23 03:32:01;;;;;;;2.58;2.47;;;4.60;99.90;;;;;;5025018;28;20105;-74
2022/11/23 03:34:26;;;;;;;2.45;2.35;;;4.60;99.90;;;;;;5035863;22;20076;-74
2022/11/23 03:36:52;;;;;;;2.67;2.58;;;4.60;99.90;;;;;;5033300;28;20574;-75
2022/11/23 03:39:18;;;;;;;2.80;2.70;;;4.60;99.90;;;;;;5029515;28;20470;-75
2022/11/23 03:41:43;;;;;;;3.10;3.00;;;4.60;99.90;;;;;;5014239;28;20025;-74
2022/11/23 03:44:09;;;;;;;2.75;2.65;;;4.60;99.90;;;;;;5022968;28;20479;-75
2022/11/23 03:46:34;;;;;;;3.15;3.05;;;4.60;99.90;;;;;;5012004;28;20554;-75
2022/11/23 03:49:00;;;;;;;2.55;2.45;;;4.60;99.90;;;;;;5022037;28;20030;-75
2022/11/23 03:51:25;;;;;;;2.22;2.15;;;4.60;99.90;;;;;;5019457;28;20044;-75
2022/11/23 03:53:51;;;;;;;2.60;2.50;;;4.70;99.90;;;;;;5011737;28;20116;-75
2022/11/23 03:56:16;;;;;;;2.65;2.55;;;4.70;99.90;;;;;;5011730;28;20109;-75
2022/11/23 03:58:42;;;;;;;2.50;2.40;;;4.70;99.90;;;;;;5011566;28;20364;-74
2022/11/23 04:01:07;;;;;;;2.70;2.60;;;4.70;99.90;;;;;;4994320;28;20053;-75
2022/11/23 04:03:33;;;;;;;2.40;2.30;;;4.70;99.90;;;;;;4994092;28;20399;-75
2022/11/23 04:05:59;;;;;;;3.15;2.95;;;4.70;99.90;;;;;;5011745;28;20021;-75
2022/11/23 04:08:25;;;;;;;2.90;2.80;;;4.70;99.90;;;;;;5011335;28;20022;-75
2022/11/23 04:10:50;;;;;;;2.45;2.35;;;4.60;99.90;;;;;;5011826;28;20069;-75
2022/11/23 04:13:16;;;;;;;2.25;2.17;;;4.70;99.90;;;;;;5011650;28;20080;-76
2022/11/23 04:15:41;;;;;;;4.30;3.90;;;4.70;99.90;;;;;;5011590;28;20053;-75
2022/11/23 04:18:07;;;;;;;2.60;2.50;;;4.70;99.90;;;;;;5011716;28;20029;-75
2022/11/23 04:20:32;;;;;;;3.08;2.97;;;4.70;99.90;;;;;;5011656;28;20022;-74
2022/11/23 04:22:58;;;;;;;2.65;2.55;;;4.80;99.90;;;;;;4991761;28;20045;-73
2022/11/23 04:25:24;;;;;;;2.67;2.58;;;4.80;99.90;;;;;;5025698;28;20467;-73
2022/11/23 04:27:49;;;;;;;2.72;2.63;;;4.80;99.90;;;;;;5019852;28;20038;-73
2022/11/23 04:30:15;;;;;;;2.42;2.33;;;4.70;99.90;;;;;;4997961;28;20026;-73
2022/11/23 04:32:43;;;;;;;3.75;3.45;;;4.70;99.90;;;;;;4997650;28;20085;-73
2022/11/23 04:35:09;;;;;;;2.97;2.88;;;4.70;99.90;;;;;;4997588;28;20088;-73
2022/11/23 04:37:34;;;;;;;2.83;2.72;;;4.70;99.90;;;;;;5014840;28;20026;-75
2022/11/23 04:40:00;;;;;;;2.88;2.78;;;4.70;99.90;;;;;;4997604;28;20022;-75
2022/11/23 04:42:25;;;;;;;2.72;2.63;;;4.70;99.90;;;;;;5015143;28;20442;-74
2022/11/23 04:44:51;;;;;;;2.90;2.80;;;4.70;99.90;;;;;;4997549;28;20029;-73
2022/11/23 04:47:16;;;;;;;2.70;2.60;;;4.70;99.90;;;;;;5014855;28;20025;-74
2022/11/23 04:49:42;;;;;;;2.90;2.80;;;4.70;99.90;;;;;;4997491;28;20054;-74
2022/11/23 04:52:08;;;;;;;2.72;2.63;;;4.60;99.90;;;;;;4997256;28;20084;-74
2022/11/23 04:54:33;;;;;;;2.72;2.63;;;4.70;99.90;;;;;;5014894;28;20479;-75
2022/11/23 04:56:59;;;;;;;3.13;3.03;;;4.70;99.90;;;;;;5014788;28;20384;-74
2022/11/23 04:59:24;;;;;;;2.60;2.50;;;4.70;99.90;;;;;;5014899;28;20064;-74
2022/11/23 05:01:51;;;;;;;2.70;2.60;;;4.70;99.90;;;;;;4997248;28;20114;-74
2022/11/23 05:04:17;;;;;;;2.53;2.42;;;4.70;99.90;;;;;;5014736;28;20029;-74
2022/11/23 05:06:43;;;;;;;2.65;2.55;;;4.70;99.90;;;;;;5014517;28;20479;-75
2022/11/23 05:09:09;;;;;;;3.03;2.92;;;4.70;99.90;;;;;;5014489;28;20025;-75
2022/11/23 05:11:34;;;;;;;3.35;3.25;;;4.70;99.90;;;;;;4996890;28;20392;-74
2022/11/23 05:14:00;;;;;;;3.15;3.05;;;4.70;99.90;;;;;;4996820;28;20471;-75
2022/11/23 05:16:25;;;;;;;3.00;2.90;;;4.70;99.90;;;;;;5014474;28;20029;-74
2022/11/23 05:18:51;;;;;;;2.35;2.25;;;4.70;99.90;;;;;;5014041;28;20014;-75
2022/11/23 05:21:16;;;;;;;3.03;2.92;;;4.70;99.90;;;;;;4993736;28;20026;-75
2022/11/23 05:23:42;;;;;;;2.47;2.38;;;4.70;99.90;;;;;;5004755;28;20479;-75
2022/11/23 05:26:08;;;;;;;2.72;2.63;;;4.70;99.90;;;;;;5019528;28;20093;-74
2022/11/23 05:28:33;;;;;;;2.50;2.40;;;4.70;99.90;;;;;;5014397;28;20026;-76
2022/11/23 05:30:59;;;;;;;2.42;2.33;;;4.70;99.90;;;;;;4995696;28;20024;-75
2022/11/23 05:33:24;;;;;;;2.30;2.22;;;4.70;99.90;;;;;;4984979;28;20475;-76
2022/11/23 05:35:50;;;;;;;6.38;5.90;;;4.70;99.90;;;;;;5013678;28;20033;-74
2022/11/23 05:38:16;;;;;;;5.95;5.75;;;4.60;99.90;;;;;;5013424;28;20049;-76
2022/11/23 05:40:41;;;;;;;2.63;2.53;;;4.70;99.90;;;;;;5014202;28;20100;-76
2022/11/23 05:43:07;;;;;;;3.42;3.33;;;4.70;99.90;;;;;;5006830;28;20085;-76
2022/11/23 05:45:33;;;;;;;2.97;2.88;;;4.70;99.90;;;;;;4989992;28;20026;-76
2022/11/23 05:47:58;;;;;;;3.58;3.47;;;4.70;99.90;;;;;;5001793;28;20030;-76
2022/11/23 05:50:26;;;;;;;3.38;3.28;;;4.70;99.90;;;;;;5000860;28;20037;-75
2022/11/23 05:52:54;;;;;;;3.03;2.92;;;4.70;99.90;;;;;;5006461;28;20060;-74
2022/11/23 05:55:19;;;;;;;2.72;2.63;;;4.70;99.90;;;;;;5007342;28;20076;-75
2022/11/23 05:57:45;;;;;;;2.78;2.67;;;4.70;99.90;;;;;;5001933;28;20069;-75
2022/11/23 06:00:11;;;;;;;2.90;2.80;;;4.70;99.90;;;;;;5000916;28;20026;-75
2022/11/23 06:02:37;;;;;;;2.50;2.40;;;4.70;99.90;;;;;;4988270;28;20483;-75
2022/11/23 06:05:03;;;;;;;2.72;2.63;;;4.70;99.90;;;;;;4989642;28;20036;-75
2022/11/23 06:07:30;;;;;;;2.78;2.67;;;4.70;99.90;;;;;;5001617;28;20112;-75
2022/11/23 06:09:56;;;;;;;3.15;3.05;;;4.70;99.90;;;;;;5012742;28;20157;-75
2022/11/23 06:12:21;;;;;;;2.58;2.47;;;4.60;99.90;;;;;;5001788;28;20109;-75
2022/11/23 06:14:46;;;;;;;2.42;2.33;;;4.70;99.90;;;;;;5000175;28;20098;-74
2022/11/23 06:17:12;;;;;;;2.30;2.20;;;4.60;99.90;;;;;;4988372;28;20026;-75
2022/11/23 06:19:38;;;;;;;2.75;2.65;;;4.60;99.90;;;;;;4989262;28;20475;-76
2022/11/23 06:22:03;;;;;;;2.35;2.25;;;4.50;99.90;;;;;;5001027;28;20026;-75
2022/11/23 06:24:29;;;;;;;2.85;2.75;;;4.60;99.90;;;;;;4999395;28;20030;-75
2022/11/23 06:26:54;;;;;;;2.40;2.30;;;4.60;99.90;;;;;;5001232;28;20133;-75
2022/11/23 06:29:20;;;;;;;4.05;3.85;;;4.60;99.90;;;;;;4999974;28;20040;-75
2022/11/23 06:31:46;;;;;;;2.38;2.28;;;4.60;99.90;;;;;;5012765;28;20042;-75
2022/11/23 06:34:12;;;;;;;2.78;2.67;;;4.50;99.90;;;;;;5012617;28;20034;-74
2022/11/23 06:36:38;;;;;;;2.65;2.55;;;4.60;99.90;;;;;;5005932;28;20377;-75
2022/11/23 06:39:04;;;;;;;2.30;2.20;;;4.50;99.90;;;;;;5006537;28;20395;-75
2022/11/23 06:41:29;;;;;;;3.50;3.35;;;4.60;99.90;;;;;;4983491;28;20022;-75
2022/11/23 06:43:55;;;;;;;2.72;2.63;;;4.60;99.90;;;;;;4999746;28;20035;-75
2022/11/23 06:46:20;;;;;;;2.40;2.30;;;4.60;99.90;;;;;;5005513;28;20023;-75
2022/11/23 06:48:46;;;;;;;2.50;2.40;;;4.70;99.90;;;;;;4993802;28;20034;-76
2022/11/23 06:51:13;;;;;;;3.72;3.58;;;4.60;99.90;;;;;;4987931;28;20030;-74
2022/11/23 06:53:39;;;;;;;2.75;2.65;;;4.70;99.90;;;;;;4993971;28;20034;-75
2022/11/23 06:56:05;;;;;;;2.53;2.42;;;4.70;99.90;;;;;;5005240;28;20492;-75
2022/11/23 06:58:31;;;;;;;2.95;2.85;;;4.80;99.90;;;;;;5006162;28;20130;-75
2022/11/23 07:01:01;;;;;;;2.45;2.35;;;4.80;99.90;;;;;;4982963;28;20510;-75
2022/11/23 07:03:26;;;;;;;2.65;2.55;;;4.80;99.90;;;;;;4999489;28;20026;-74
2022/11/23 07:05:52;;;;;;;2.80;2.70;;;4.90;99.90;;;;;;5004741;28;20041;-75
2022/11/23 07:08:18;;;;;;;2.45;2.35;;;4.90;99.90;;;;;;5006323;28;20499;-75
2022/11/23 07:10:44;;;;;;;2.00;2.00;;;4.90;99.90;;;;;;5017897;28;20431;-75
2022/11/23 07:13:10;;;;;;;2.33;2.22;;;4.90;99.90;;;;;;5031374;28;20079;-75
2022/11/23 07:15:37;;;;;;;2.33;2.22;;;4.90;99.90;;;;;;5004728;28;20034;-75
2022/11/23 07:18:03;;;;;;;3.17;3.08;;;5.00;99.90;;;;;;5005732;28;20026;-75
2022/11/23 07:20:29;;;;;;;2.35;2.25;;;5.00;99.90;;;;;;5000562;28;20026;-75
2022/11/23 07:23:00;;;;;;;2.65;2.55;;;5.00;99.90;;;;;;4999095;28;20529;-74
2022/11/23 07:25:27;;;;;;;2.40;2.30;;;5.00;99.90;;;;;;4994575;28;20089;-76
2022/11/23 07:28:00;;;;;;;2.10;2.10;;;5.00;99.90;;;;;;5011835;28;20034;-76
2022/11/23 07:30:27;;;;;;;2.35;2.25;;;5.00;99.90;;;;;;5002645;28;20030;-75
2022/11/23 07:32:53;;;;;;;3.20;3.10;;;5.00;99.90;;;;;;4987862;28;20134;-75
2022/11/23 07:35:20;;;;;;;2.33;2.22;;;5.10;99.90;;;;;;5001589;28;20420;-75
2022/11/23 07:37:46;;;;;;;2.70;2.60;;;5.10;99.90;;;;;;5027955;28;20028;-73
2022/11/23 07:40:12;;;;;;;2.00;2.00;;;5.10;99.90;;;;;;4994391;28;20498;-75
2022/11/23 07:42:38;;;;;;;2.03;2.03;;;5.10;99.90;;;;;;5008375;28;20031;-75
2022/11/23 07:45:05;;;;;;;2.47;2.38;;;5.10;99.90;;;;;;4998436;28;20511;-75
2022/11/23 07:47:31;;;;;;;2.03;2.03;;;5.10;99.90;;;;;;4999303;28;20037;-76
2022/11/23 07:49:56;;;;;;;2.25;2.15;;;5.10;99.90;;;;;;5022981;28;20022;-74
2022/11/23 07:52:22;;;;;;;2.42;2.33;;;5.10;99.90;;;;;;5000297;28;20053;-74
2022/11/23 07:54:48;;;;;;;2.00;2.00;;;5.20;99.90;;;;;;5022984;28;20022;-75
2022/11/23 07:57:13;;;;;;;2.88;2.78;;;5.20;99.90;;;;;;5025336;28;20033;-74
2022/11/23 07:59:39;;;;;;;1.95;1.95;;;5.20;99.90;;;;;;5020430;28;20033;-75
2022/11/23 08:02:05;;;;;;;4.82;4.63;;;5.20;99.90;;;;;;5018219;28;20022;-75
2022/11/23 08:04:30;;;;;;;2.67;2.58;;;5.20;99.90;;;;;;5000638;28;20484;-74
2022/11/23 08:06:56;;;;;;;2.80;2.70;;;5.20;99.90;;;;;;5018062;28;20029;-74
2022/11/23 08:09:22;;;;;;;2.42;2.33;;;5.20;99.90;;;;;;5008015;28;20026;-74
2022/11/23 08:11:47;;;;;;;2.40;2.30;;;5.30;99.90;;;;;;4998562;28;20031;-73
2022/11/23 08:14:13;;;;;;;2.50;2.40;;;5.30;99.90;;;;;;5016214;28;20083;-75
2022/11/23 08:16:39;;;;;;;2.70;2.60;;;5.30;99.90;;;;;;5012279;28;20023;-75
2022/11/23 08:19:04;;;;;;;2.40;2.30;;;5.30;99.90;;;;;;5008827;28;20426;-74
2022/11/23 08:21:30;;;;;;;1.88;1.88;;;5.40;99.90;;;;;;5000118;28;20476;-75
2022/11/23 08:23:55;;;;;;;2.42;2.33;;;5.40;99.90;;;;;;5018281;28;20033;-74
2022/11/23 08:26:21;;;;;;;2.45;2.35;;;5.50;99.90;;;;;;5003072;28;20026;-74
2022/11/23 08:28:46;;;;;;;2.08;2.08;;;5.50;99.90;;;;;;4988894;28;20030;-75
2022/11/23 08:31:13;;;;;;;2.00;2.00;;;5.50;99.90;;;;;;4995298;28;20030;-74
2022/11/23 08:33:39;;;;;;;2.35;2.25;;;5.50;99.90;;;;;;5016271;28;20454;-76
2022/11/23 08:36:06;;;;;;;2.00;2.00;;;5.50;99.90;;;;;;4998324;28;20034;-74
2022/11/23 08:38:33;;;;;;;1.95;1.95;;;5.50;99.90;;;;;;5015796;28;20109;-75
2022/11/23 08:41:00;;;;;;;1.90;1.90;;;5.60;99.90;;;;;;4999331;28;20122;-75
2022/11/23 08:43:26;;;;;;;2.50;2.40;;;5.60;99.90;;;;;;5017800;28;20451;-75
2022/11/23 08:45:59;;;;;;;1.88;1.88;;;5.70;99.90;;;;;;5001045;28;20045;-75
2022/11/23 08:48:26;;;;;;;2.08;2.08;;;5.70;99.90;;;;;;4998114;28;20053;-74
2022/11/23 08:50:52;;;;;;;2.40;2.30;;;5.80;99.90;;;;;;4998349;28;20037;-76
2022/11/23 08:53:17;;;;;;;2.47;2.38;;;5.90;99.90;;;;;;4998322;28;20038;-75
2022/11/23 08:55:43;;;;;;;2.22;2.17;;;5.90;99.90;;;;;;4997978;28;20022;-74
2022/11/23 08:58:10;;;;;;;2.38;2.28;;;5.90;99.90;;;;;;4980706;28;20064;-74
2022/11/23 09:00:36;;;;;;;2.10;2.10;;;6.00;99.90;;;;;;4998880;28;20030;-75
2022/11/23 09:03:02;;;;;;;2.30;2.20;;;6.00;99.90;;;;;;4998224;28;20026;-75
2022/11/23 09:05:28;;;;;;;2.33;2.22;;;6.20;99.90;;;;;;4997999;28;20026;-75
2022/11/23 09:07:58;;;;;;;2.30;2.20;;;6.10;99.90;;;;;;4980339;28;20488;-74
2022/11/23 09:10:23;;;;;;;1.98;1.98;;;6.10;99.90;;;;;;4998025;28;20061;-74
2022/11/23 09:12:49;;;;;;;2.90;2.80;;;6.10;99.90;;;;;;4994467;28;20069;-74
2022/11/23 09:15:14;;;;;;;2.38;2.28;;;6.10;99.90;;;;;;4994948;28;20022;-74
2022/11/23 09:17:40;;;;;;;2.15;2.10;;;6.20;99.90;;;;;;4994857;28;20365;-75
2022/11/23 09:20:07;;;;;;;1.98;1.98;;;6.20;99.90;;;;;;4977399;28;20018;-74
2022/11/23 09:22:32;;;;;;;2.30;2.20;;;6.20;99.90;;;;;;5005981;28;20057;-75
2022/11/23 09:24:58;;;;;;;2.17;2.10;;;6.20;99.90;;;;;;5014317;28;20060;-75
2022/11/23 09:27:23;;;;;;;3.42;3.13;;;6.20;99.90;;;;;;5014161;28;20038;-75
2022/11/23 09:29:49;;;;;;;2.45;2.35;;;6.30;99.90;;;;;;5014272;28;20030;-75
2022/11/23 09:32:14;;;;;;;2.22;2.13;;;6.30;99.90;;;;;;5013964;28;20034;-75
2022/11/23 09:34:44;;;;;;;1.88;1.88;;;6.40;99.90;;;;;;4978479;28;20046;-74
2022/11/23 09:37:10;;;;;;;1.77;1.77;;;6.40;99.90;;;;;;5006535;28;20494;-75
2022/11/23 09:39:35;;;;;;;2.00;2.00;;;6.40;99.90;;;;;;4978429;28;20088;-75
2022/11/23 09:42:24;;;;;;;2.40;2.30;;;6.50;99.90;;;;;;5006077;28;20480;-75
2022/11/23 09:45:15;;;;;;;1.77;1.77;;;6.50;99.90;;;;;;4984924;28;20117;-75
2022/11/23 09:48:01;;;;;;;5.20;1.90;;;6.60;99.90;;;;;;5000947;28;20553;-75
2022/11/23 09:50:33;;;;;;;1.60;1.60;;;6.70;99.90;;;;;;4983351;28;20085;-75
2022/11/23 09:53:04;;;;;;;1.73;1.70;;;6.70;99.90;;;;;;5014127;28;20057;-75
2022/11/23 09:55:47;;;;;;;1.50;1.50;;;6.60;99.90;;;;;;4996230;28;20026;-75
2022/11/23 09:58:15;;;;;;;1.60;1.60;;;6.70;99.90;;;;;;4984926;28;20551;-75
2022/11/23 10:00:57;;;;;;;1.80;1.80;;;6.80;99.90;;;;;;4989755;28;20081;-74
2022/11/23 10:03:23;;;;;;;1.20;1.20;;;6.90;99.90;;;;;;5009288;28;20040;-74
2022/11/23 10:06:18;;;;;;;1.25;1.25;;;7.00;99.90;;;;;;4984006;28;20532;-75
2022/11/23 10:09:23;;;;;;;1.60;1.60;;;7.00;99.90;;;;;;4996514;28;20399;-75
2022/11/23 10:11:48;;;;;;;1.40;1.40;;;7.00;99.90;;;;;;4995846;28;20057;-75
2022/11/23 10:14:43;;;;;;;1.40;1.40;;;7.10;99.90;;;;;;5013611;28;20080;-74
2022/11/23 10:17:31;;;;;;;1.60;1.60;;;7.10;99.90;;;;;;4996155;28;20033;-75
2022/11/23 10:20:08;;;;;;;1.00;1.00;;;7.20;99.90;;;;;;4996112;28;20096;-75
2022/11/23 10:22:44;;;;;;;1.17;1.17;;;7.30;99.90;;;;;;5013146;28;20033;-74
2022/11/23 10:25:16;;;;;;;1.30;1.30;;;7.20;99.90;;;;;;4979660;28;20022;-75
2022/11/23 10:27:43;;;;;;;1.30;1.30;;;7.20;99.90;;;;;;5007512;28;20037;-75
2022/11/23 10:30:14;;;;;;;1.33;1.33;;;7.20;99.90;;;;;;5013408;28;20128;-75
2022/11/23 10:33:22;;;;;;;1.35;1.35;;;7.30;99.90;;;;;;4995530;28;20418;-74
2022/11/23 10:35:47;;;;;;;1.20;1.20;;;7.20;99.90;;;;;;4999002;28;20042;-75
2022/11/23 10:38:15;;;;;;;1.10;1.10;;;7.40;99.90;;;;;;4976032;28;20491;-75
2022/11/23 10:41:11;;;;;;;1.10;1.10;;;7.50;99.90;;;;;;5007673;28;20030;-75
2022/11/23 10:43:50;;;;;;;1.20;1.20;;;7.50;99.90;;;;;;4976105;28;20117;-75
2022/11/23 10:46:23;;;;;;;1.10;1.10;;;7.50;99.90;;;;;;4999812;28;20411;-75
2022/11/23 10:48:50;;;;;;;1.00;1.00;;;7.50;99.90;;;;;;4999542;28;20380;-74
2022/11/23 10:51:30;;;;;;;1.05;1.05;;;7.60;99.90;;;;;;5005556;28;20068;-75
2022/11/23 10:54:02;;;;;;;1.10;1.10;;;7.70;99.90;;;;;;5009136;28;20128;-75
2022/11/23 10:56:28;;;;;;;1.40;1.40;;;7.60;99.90;;;;;;5002921;28;20121;-75
2022/11/23 10:58:54;;;;;;;0.80;0.80;;;7.60;99.90;;;;;;5006010;28;20049;-75
2022/11/23 11:01:29;;;;;;;0.90;0.90;;;7.70;99.90;;;;;;4975463;28;20034;-75
2022/11/23 11:03:58;;;;;;;0.85;0.85;;;7.80;99.90;;;;;;4992266;28;20023;-74
2022/11/23 11:06:30;;;;;;;0.80;0.80;;;7.90;99.90;;;;;;4992443;28;20073;-75
2022/11/23 11:09:18;;;;;;;0.90;0.90;;;7.90;99.90;;;;;;4976426;28;20049;-75
2022/11/23 11:11:50;;;;;;;2.05;1.67;;;7.90;99.90;;;;;;5007739;28;20344;-75
2022/11/23 11:14:18;;;;;;;0.70;0.70;;;7.90;99.90;;;;;;5022306;28;20043;-75
2022/11/23 11:16:56;;;;;;;1.17;1.15;;;7.90;99.90;;;;;;5008110;28;20092;-75
2022/11/23 11:19:30;;;;;;;0.73;0.73;;;8.00;99.90;;;;;;5015817;28;20066;-75
2022/11/23 11:21:58;;;;;;;0.70;0.70;;;8.00;99.90;;;;;;5024968;28;20420;-76
2022/11/23 11:24:36;;;;;;;2.35;2.25;;;8.10;99.90;;;;;;5019411;28;20502;-75
2022/11/23 11:27:12;;;;;;;0.90;0.90;;;8.00;99.90;;;;;;5012128;28;20065;-76
2022/11/23 11:29:44;;;;;;;0.70;0.70;;;8.10;99.90;;;;;;4994466;28;20033;-75
2022/11/23 11:32:24;;;;;;;0.50;0.50;;;8.20;99.90;;;;;;4989076;28;20468;-75
2022/11/23 11:35:14;;;;;;;0.88;0.88;;;8.20;99.90;;;;;;5020466;28;20060;-76
2022/11/23 11:37:45;;;;;;;0.65;0.65;;;8.20;99.90;;;;;;5015725;28;20029;-76
2022/11/23 11:40:33;;;;;;;1.42;1.42;;;8.10;99.90;;;;;;5012000;28;20053;-75
2022/11/23 11:43:07;;;;;;;0.60;0.60;;;8.20;99.90;;;;;;5011788;28;20476;-75
2022/11/23 11:45:38;;;;;;;0.43;0.43;;;8.20;99.90;;;;;;5011639;28;20156;-74
2022/11/23 11:48:07;;;;;;;0.50;0.50;;;8.20;99.90;;;;;;5011674;28;20389;-75
2022/11/23 11:50:43;;;;;;;0.50;0.50;;;8.20;99.90;;;;;;5013297;28;20029;-79
2022/11/23 11:53:17;;;;;;;0.50;0.50;;;8.20;99.90;;;;;;5012392;28;20033;-76
2022/11/23 11:55:57;;;;;;;0.60;0.60;;;8.30;99.90;;;;;;4993795;28;20080;-75
2022/11/23 11:58:27;;;;;;;0.95;0.95;;;8.30;99.90;;;;;;5011718;28;20476;-75
2022/11/23 12:01:06;;;;;;;0.50;0.50;;;8.30;99.90;;;;;;5011699;28;20033;-75
2022/11/23 12:03:46;;;;;;;0.85;0.85;;;8.30;99.90;;;;;;4993971;28;20022;-76
2022/11/23 12:06:19;;;;;;;0.60;0.60;;;8.30;99.90;;;;;;5011769;28;20058;-75
2022/11/23 12:09:02;;;;;;;0.50;0.50;;;8.30;99.90;;;;;;5002424;28;20025;-75
2022/11/23 12:11:27;;;;;;;0.50;0.50;;;8.20;99.90;;;;;;5017483;28;20038;-75
2022/11/23 12:14:02;;;;;;;0.47;0.47;;;8.30;99.90;;;;;;5011499;28;20029;-74
2022/11/23 12:16:49;;;;;;;0.47;0.45;;;8.30;99.90;;;;;;4998274;28;20511;-75
2022/11/23 12:19:23;;;;;;;0.40;0.40;;;8.20;99.90;;;;;;4993360;28;20112;-75
2022/11/23 12:22:10;;;;;;;0.50;0.50;;;8.20;99.90;;;;;;4988804;28;20018;-75
2022/11/23 12:24:53;;;;;;;0.32;0.32;;;8.30;99.90;;;;;;5006807;28;20480;-74
2022/11/23 12:27:22;;;;;;;0.50;0.50;;;8.30;99.90;;;;;;5011400;28;20030;-75
2022/11/23 12:30:10;;;;;;;0.60;0.60;;;8.30;99.90;;;;;;4994136;28;20033;-74
2022/11/23 12:32:48;;;;;;;1.65;1.05;;;8.30;99.90;;;;;;5010937;28;20105;-74
2022/11/23 12:35:25;;;;;;;0.60;0.60;;;8.20;99.90;;;;;;5011986;28;20188;-74
2022/11/23 12:38:20;;;;;;;0.45;0.45;;;8.30;99.90;;;;;;5002875;28;20117;-74
2022/11/23 12:41:00;;;;;;;0.40;0.40;;;8.30;99.90;;;;;;4975379;28;20023;-75
2022/11/23 12:43:49;;;;;;;0.75;0.75;;;8.30;99.90;;;;;;4982215;28;20472;-75
2022/11/23 12:46:35;;;;;;;0.40;0.40;;;8.40;99.90;;;;;;4993733;28;20027;-74
2022/11/23 12:49:24;;;;;;;0.98;0.98;;;8.40;99.90;;;;;;5020920;28;20025;-75
2022/11/23 12:52:04;;;;;;;0.65;0.65;;;8.20;99.90;;;;;;5015212;28;20088;-75
2022/11/23 12:54:41;;;;;;;0.40;0.40;;;8.40;99.90;;;;;;5014788;28;20463;-75
2022/11/23 12:57:14;;;;;;;0.50;0.50;;;8.40;99.90;;;;;;4997082;28;20064;-74
2022/11/23 12:59:59;;;;;;;0.50;0.50;;;8.40;99.90;;;;;;5014886;28;20029;-74
2022/11/23 13:02:55;;;;;;;0.40;0.40;;;8.60;99.90;;;;;;4984179;28;20567;-75
2022/11/23 13:05:37;;;;;;;0.50;0.50;;;8.80;99.90;;;;;;5001651;28;20049;-74
2022/11/23 13:08:24;;;;;;;0.65;0.65;;;8.90;99.90;;;;;;5014481;28;20273;-74